Time;durP1;ratioP1;P1;durP2;ratioP2;P2;SDS_P1;SDS_P2;PMS_P1;PMS_P2;Temp;Humidity;BMP_temperature;BMP_pressure;BME280_temperature;BME280_humidity;BME280_pressure;Samples;Min_cycle;Max_cycle;Signal;HPM_P1;HPM_P2
2023/08/01 00:00:14;;;;;;;5.15;3.05;;;17.20;99.90;;;;;;5071169;28;20227;-71
2023/08/01 00:02:43;;;;;;;3.33;3.03;;;17.30;99.90;;;;;;5092281;28;20584;-70
2023/08/01 00:05:10;;;;;;;3.88;3.50;;;17.30;99.90;;;;;;5088585;28;20722;-71
2023/08/01 00:07:36;;;;;;;3.90;3.50;;;17.30;99.90;;;;;;5087914;28;20209;-70
2023/08/01 00:10:04;;;;;;;6.43;3.40;;;17.30;99.90;;;;;;5092785;28;20223;-71
2023/08/01 00:12:30;;;;;;;4.00;3.38;;;17.20;99.90;;;;;;5088092;28;20295;-70
2023/08/01 00:14:59;;;;;;;9.82;3.67;;;17.20;99.90;;;;;;5095166;28;20199;-70
2023/08/01 00:17:25;;;;;;;5.55;3.35;;;17.20;99.90;;;;;;5077087;28;20707;-70
2023/08/01 00:19:52;;;;;;;4.28;3.88;;;17.20;99.90;;;;;;5094359;28;20566;-70
2023/08/01 00:22:19;;;;;;;8.80;3.85;;;17.20;99.90;;;;;;5091443;28;20192;-71
2023/08/01 00:24:47;;;;;;;4.90;3.40;;;17.30;99.90;;;;;;5092801;28;20207;-70
2023/08/01 00:27:14;;;;;;;3.40;3.10;;;17.20;99.90;;;;;;5087137;28;20195;-71
2023/08/01 00:29:41;;;;;;;6.90;3.95;;;17.20;99.90;;;;;;5094771;28;20235;-70
2023/08/01 00:32:09;;;;;;;5.43;3.90;;;17.20;99.90;;;;;;5067537;28;20211;-71
2023/08/01 00:34:36;;;;;;;9.15;4.32;;;17.30;99.90;;;;;;5095934;28;20221;-70
2023/08/01 00:37:03;;;;;;;5.28;4.00;;;17.20;99.90;;;;;;5092854;28;20629;-72
2023/08/01 00:39:30;;;;;;;4.22;3.83;;;17.20;99.90;;;;;;5094082;28;20207;-70
2023/08/01 00:41:56;;;;;;;4.40;4.00;;;17.30;99.90;;;;;;5090705;28;20200;-70
2023/08/01 00:44:24;;;;;;;5.30;3.72;;;17.20;99.90;;;;;;5094272;28;20293;-71
2023/08/01 00:46:50;;;;;;;4.57;4.18;;;17.20;99.90;;;;;;5093710;28;20706;-70
2023/08/01 00:49:19;;;;;;;5.43;4.60;;;17.20;99.90;;;;;;5069875;28;20214;-71
2023/08/01 00:51:46;;;;;;;6.68;4.53;;;17.20;99.90;;;;;;5085177;28;20768;-71
2023/08/01 00:54:12;;;;;;;5.88;4.72;;;17.30;99.90;;;;;;5087679;28;20195;-71
2023/08/01 00:56:39;;;;;;;5.85;4.90;;;17.20;99.90;;;;;;5090745;28;20202;-70
2023/08/01 00:59:06;;;;;;;6.00;4.72;;;17.20;99.90;;;;;;5092604;28;20578;-72
2023/08/01 01:01:33;;;;;;;7.22;4.95;;;17.20;99.90;;;;;;5092358;28;20223;-70
2023/08/01 01:03:59;;;;;;;6.13;5.38;;;17.20;99.90;;;;;;5070989;28;20234;-71
2023/08/01 01:06:32;;;;;;;8.13;5.07;;;17.30;99.90;;;;;;5089160;28;20223;-70
2023/08/01 01:08:59;;;;;;;11.15;6.00;;;17.30;99.90;;;;;;5082031;28;20203;-70
2023/08/01 01:11:26;;;;;;;8.88;4.88;;;17.20;99.90;;;;;;5095380;28;20231;-71
2023/08/01 01:13:53;;;;;;;9.27;6.43;;;17.70;99.90;;;;;;5086422;27;20588;-70
2023/08/01 01:16:20;;;;;;;9.65;6.13;;;17.20;99.90;;;;;;5093559;28;20196;-70
2023/08/01 01:18:47;;;;;;;9.90;5.85;;;17.10;99.90;;;;;;5070537;28;20680;-71
2023/08/01 01:24:38;;;;;;;7.78;5.20;;;17.20;99.90;;;;;;5097377;28;20260;-70
2023/08/01 01:27:06;;;;;;;6.90;5.55;;;17.20;99.90;;;;;;5094125;28;20218;-70
2023/08/01 01:29:34;;;;;;;9.88;5.90;;;17.10;99.90;;;;;;5085360;28;20223;-70
2023/08/01 01:32:02;;;;;;;6.07;5.47;;;;;;;;;;5091603;28;20685;-71
2023/08/01 01:34:29;;;;;;;7.22;5.60;;;17.20;99.90;;;;;;5073035;28;20215;-70
2023/08/01 01:36:57;;;;;;;11.00;5.78;;;;;;;;;;5090525;28;20229;-71
2023/08/01 01:39:24;;;;;;;6.60;5.18;;;17.10;99.90;;;;;;5083898;28;20212;-70
2023/08/01 01:41:52;;;;;;;5.72;4.72;;;;;;;;;;5092634;28;20644;-71
2023/08/01 01:44:19;;;;;;;7.13;5.20;;;17.10;99.90;;;;;;5079776;28;20219;-70
2023/08/01 01:46:49;;;;;;;9.27;5.63;;;17.00;99.90;;;;;;5090728;28;20218;-71
2023/08/01 01:49:15;;;;;;;5.55;4.97;;;17.10;99.90;;;;;;5070968;28;20752;-70
2023/08/01 01:51:42;;;;;;;5.90;5.30;;;17.10;99.90;;;;;;5087730;28;20250;-70
2023/08/01 01:54:10;;;;;;;6.43;5.07;;;17.10;99.90;;;;;;5078586;28;20223;-70
2023/08/01 01:56:37;;;;;;;6.75;4.75;;;17.10;99.90;;;;;;5089515;28;20227;-70
2023/08/01 01:59:04;;;;;;;16.40;5.78;;;17.10;99.90;;;;;;5085410;28;20580;-70
2023/08/01 02:01:31;;;;;;;7.80;4.78;;;17.00;99.90;;;;;;5082391;27;20219;-72
2023/08/01 02:03:58;;;;;;;10.57;5.07;;;17.10;99.90;;;;;;5092040;28;20640;-71
2023/08/01 02:06:24;;;;;;;9.07;5.22;;;17.00;99.90;;;;;;5070383;28;20219;-70
2023/08/01 02:08:51;;;;;;;7.03;4.60;;;17.10;99.90;;;;;;5081603;28;20222;-71
2023/08/01 02:11:19;;;;;;;6.88;4.60;;;17.00;99.90;;;;;;5093463;28;20219;-70
2023/08/01 02:13:46;;;;;;;7.13;4.53;;;17.00;99.90;;;;;;5089258;28;21205;-71
2023/08/01 02:16:13;;;;;;;6.00;4.03;;;17.00;99.90;;;;;;5089276;28;20210;-70
2023/08/01 02:18:40;;;;;;;6.68;4.07;;;16.90;99.90;;;;;;5092108;28;20191;-70
2023/08/01 02:21:07;;;;;;;6.75;4.20;;;16.90;99.90;;;;;;5067742;28;20686;-71
2023/08/01 02:23:36;;;;;;;4.32;3.42;;;16.90;99.90;;;;;;5092995;28;20234;-70
2023/08/01 02:26:03;;;;;;;7.35;3.63;;;16.80;99.90;;;;;;5083128;28;20234;-70
2023/08/01 02:28:31;;;;;;;3.13;2.67;;;16.80;99.90;;;;;;5093027;28;20239;-71
2023/08/01 02:30:58;;;;;;;4.22;2.95;;;16.80;99.90;;;;;;5076317;28;20227;-71
2023/08/01 02:33:24;;;;;;;5.68;3.70;;;16.70;99.90;;;;;;5092042;28;20684;-70
2023/08/01 02:35:51;;;;;;;4.80;2.92;;;16.80;99.90;;;;;;5075928;28;21030;-70
2023/08/01 02:38:18;;;;;;;4.53;2.95;;;16.80;99.90;;;;;;5086545;28;20223;-70
2023/08/01 02:40:45;;;;;;;4.10;2.50;;;16.70;99.90;;;;;;5088942;28;20187;-70
2023/08/01 02:43:11;;;;;;;2.72;2.28;;;16.80;99.90;;;;;;5094368;28;20196;-70
2023/08/01 02:45:39;;;;;;;6.18;2.53;;;16.70;99.90;;;;;;5092160;28;20200;-70
2023/08/01 02:48:06;;;;;;;4.03;2.40;;;16.70;99.90;;;;;;5083927;28;20214;-70
2023/08/01 02:50:33;;;;;;;3.60;2.42;;;16.70;99.90;;;;;;5088881;28;20223;-70
2023/08/01 02:53:00;;;;;;;3.20;2.90;;;16.80;99.90;;;;;;5062877;28;20208;-70
2023/08/01 02:55:27;;;;;;;5.57;2.78;;;16.60;99.90;;;;;;5093848;28;20192;-70
2023/08/01 02:57:53;;;;;;;4.45;3.17;;;16.60;99.90;;;;;;5091214;28;20206;-70
2023/08/01 03:00:20;;;;;;;3.10;2.40;;;16.60;99.90;;;;;;5088076;28;20206;-70
2023/08/01 03:02:48;;;;;;;4.60;2.67;;;16.50;99.90;;;;;;5085610;28;20210;-70
2023/08/01 03:05:15;;;;;;;6.20;2.30;;;16.20;99.90;;;;;;5089035;28;20657;-70
2023/08/01 03:07:42;;;;;;;4.63;2.38;;;16.50;99.90;;;;;;5089171;28;20195;-70
2023/08/01 03:10:11;;;;;;;3.30;2.28;;;16.50;99.90;;;;;;5078883;28;20292;-70
2023/08/01 03:12:38;;;;;;;4.45;2.38;;;16.50;99.90;;;;;;5089866;28;20673;-70
2023/08/01 03:15:05;;;;;;;5.97;2.50;;;16.50;99.90;;;;;;5080853;28;20889;-71
2023/08/01 03:17:32;;;;;;;3.00;2.35;;;16.40;99.90;;;;;;5093220;28;20727;-70
2023/08/01 03:20:00;;;;;;;5.13;2.40;;;16.40;99.90;;;;;;5084773;28;20203;-70
2023/08/01 03:22:27;;;;;;;4.45;2.25;;;16.40;99.90;;;;;;5091864;28;20195;-70
2023/08/01 03:24:54;;;;;;;7.50;3.28;;;;;;;;;;5072034;28;20216;-70
2023/08/01 03:27:21;;;;;;;5.47;2.90;;;16.50;99.90;;;;;;5092479;28;20639;-70
2023/08/01 03:29:48;;;;;;;7.63;3.20;;;16.40;99.90;;;;;;5086318;28;20262;-70
2023/08/01 03:32:14;;;;;;;5.93;2.97;;;16.50;99.90;;;;;;5088133;28;20227;-70
2023/08/01 03:34:41;;;;;;;6.32;3.45;;;16.50;99.90;;;;;;5086157;28;20219;-70
2023/08/01 03:37:09;;;;;;;3.92;2.65;;;16.50;99.90;;;;;;5085332;28;20300;-70
2023/08/01 03:39:36;;;;;;;4.93;2.92;;;16.50;99.90;;;;;;5069648;28;20215;-70
2023/08/01 03:42:03;;;;;;;5.55;3.58;;;16.50;99.90;;;;;;5086262;28;20214;-70
2023/08/01 03:44:31;;;;;;;3.67;2.80;;;16.50;99.90;;;;;;5086518;28;20901;-71
2023/08/01 03:46:58;;;;;;;5.55;3.70;;;16.40;99.90;;;;;;5082343;28;20204;-70
2023/08/01 03:49:25;;;;;;;6.45;4.53;;;16.50;99.90;;;;;;5085083;28;20192;-70
2023/08/01 03:51:52;;;;;;;6.53;4.00;;;16.50;99.90;;;;;;5092587;28;20226;-70
2023/08/01 03:54:20;;;;;;;7.05;4.22;;;16.40;99.90;;;;;;5068944;28;20213;-70
2023/08/01 03:56:47;;;;;;;5.25;4.03;;;16.40;99.90;;;;;;5092116;28;20618;-70
2023/08/01 03:59:15;;;;;;;5.68;3.97;;;16.50;99.90;;;;;;5094507;28;20205;-70
2023/08/01 04:01:42;;;;;;;5.28;3.33;;;16.50;99.90;;;;;;5085896;28;20917;-70
2023/08/01 04:04:09;;;;;;;6.65;3.17;;;16.50;99.90;;;;;;5089145;28;20207;-70
2023/08/01 04:06:36;;;;;;;4.20;3.80;;;16.50;99.90;;;;;;5093282;28;20196;-70
2023/08/01 04:09:03;;;;;;;14.35;4.63;;;16.50;99.90;;;;;;5075710;28;20916;-70
2023/08/01 04:11:31;;;;;;;9.23;3.60;;;16.50;99.90;;;;;;5088482;28;20235;-70
2023/08/01 04:13:58;;;;;;;5.35;3.85;;;16.40;99.90;;;;;;5097700;27;20228;-70
2023/08/01 04:16:24;;;;;;;6.65;4.47;;;16.40;99.90;;;;;;5088062;28;20195;-71
2023/08/01 04:18:51;;;;;;;4.70;3.95;;;16.50;99.90;;;;;;5090209;28;20199;-70
2023/08/01 04:21:19;;;;;;;5.65;3.53;;;16.30;99.90;;;;;;5087774;28;20199;-70
2023/08/01 04:23:45;;;;;;;4.88;2.67;;;16.40;99.90;;;;;;5094823;28;21292;-70
2023/08/01 04:26:12;;;;;;;4.95;3.03;;;16.40;99.90;;;;;;5075578;28;20592;-70
2023/08/01 04:28:40;;;;;;;6.47;2.40;;;18.10;99.90;;;;;;5093870;28;20219;-70
2023/08/01 04:31:07;;;;;;;6.30;2.92;;;16.30;99.90;;;;;;5096047;28;20233;-70
2023/08/01 04:33:34;;;;;;;5.15;3.05;;;16.20;99.90;;;;;;5087142;28;20199;-70
2023/08/01 04:36:01;;;;;;;8.10;3.72;;;16.30;99.90;;;;;;5086769;28;22018;-70
2023/08/01 04:38:28;;;;;;;7.95;3.40;;;16.20;99.90;;;;;;5094048;28;20203;-70
2023/08/01 04:40:55;;;;;;;6.10;2.58;;;16.30;99.90;;;;;;5079101;28;20320;-70
2023/08/01 04:43:22;;;;;;;3.97;2.28;;;16.20;99.90;;;;;;5096757;28;20199;-70
2023/08/01 04:45:50;;;;;;;5.68;2.00;;;16.20;99.90;;;;;;5092197;28;20217;-70
2023/08/01 04:48:16;;;;;;;4.55;2.35;;;15.60;99.90;;;;;;5094803;28;20192;-71
2023/08/01 04:50:43;;;;;;;4.60;2.17;;;16.20;99.90;;;;;;5085740;28;21071;-70
2023/08/01 04:53:11;;;;;;;6.50;2.40;;;16.30;99.90;;;;;;5097708;28;20200;-70
2023/08/01 04:55:37;;;;;;;3.85;2.20;;;16.20;99.90;;;;;;5074740;28;20203;-70
2023/08/01 04:58:04;;;;;;;5.85;2.80;;;16.20;99.90;;;;;;5094349;28;20691;-70
2023/08/01 05:00:31;;;;;;;3.97;2.50;;;16.30;99.90;;;;;;5092666;28;20200;-70
2023/08/01 05:02:59;;;;;;;5.07;2.15;;;16.20;99.90;;;;;;5093916;28;20204;-70
2023/08/01 05:05:27;;;;;;;3.92;2.60;;;16.20;99.90;;;;;;5079723;28;20202;-70
2023/08/01 05:07:54;;;;;;;7.70;2.70;;;16.20;99.90;;;;;;5094139;28;20688;-70
2023/08/01 05:10:21;;;;;;;5.50;2.38;;;16.30;99.90;;;;;;5091476;28;20566;-70
2023/08/01 05:12:47;;;;;;;6.88;2.83;;;16.30;99.90;;;;;;5073815;28;20223;-70
2023/08/01 05:15:14;;;;;;;6.32;2.40;;;16.30;99.90;;;;;;5096585;28;20188;-73
2023/08/01 05:17:41;;;;;;;3.28;2.30;;;16.30;99.90;;;;;;5087779;28;20227;-70
2023/08/01 05:20:10;;;;;;;5.60;2.75;;;16.30;99.90;;;;;;5082865;28;20208;-70
2023/08/01 05:22:37;;;;;;;2.47;2.17;;;16.40;99.90;;;;;;5084358;28;20200;-70
2023/08/01 05:25:05;;;;;;;4.78;2.53;;;16.30;99.90;;;;;;5094369;28;20543;-70
2023/08/01 05:27:31;;;;;;;4.43;2.38;;;16.30;99.90;;;;;;5070501;28;20208;-70
2023/08/01 05:29:58;;;;;;;5.75;2.38;;;16.30;99.90;;;;;;5092449;28;20230;-70
2023/08/01 05:32:25;;;;;;;5.57;2.45;;;16.40;99.90;;;;;;5093139;28;20227;-70
2023/08/01 05:34:52;;;;;;;7.13;2.85;;;16.40;99.90;;;;;;5095872;28;20199;-70
2023/08/01 05:37:20;;;;;;;6.00;3.03;;;16.40;99.90;;;;;;5079186;28;21303;-70
2023/08/01 05:39:47;;;;;;;5.50;2.58;;;16.50;99.90;;;;;;5093931;28;20509;-70
2023/08/01 05:42:13;;;;;;;3.55;2.50;;;16.40;99.90;;;;;;5086701;28;20242;-70
2023/08/01 05:44:40;;;;;;;6.43;2.67;;;16.60;99.90;;;;;;5075467;28;20323;-70
2023/08/01 05:47:07;;;;;;;4.63;3.25;;;16.40;99.90;;;;;;5088392;28;20224;-70
2023/08/01 05:49:34;;;;;;;5.88;3.28;;;16.50;99.90;;;;;;5087187;28;20209;-70
2023/08/01 05:52:01;;;;;;;7.30;3.17;;;16.40;99.90;;;;;;5083949;28;20231;-70
2023/08/01 05:54:29;;;;;;;5.63;3.20;;;16.50;99.90;;;;;;5085129;28;20210;-70
2023/08/01 05:56:56;;;;;;;8.25;3.17;;;16.50;99.90;;;;;;5093854;28;20214;-70
2023/08/01 05:59:23;;;;;;;10.88;3.88;;;16.50;99.90;;;;;;5072927;28;20214;-70
2023/08/01 06:01:49;;;;;;;7.30;3.40;;;16.50;99.90;;;;;;5093737;28;20192;-70
2023/08/01 06:04:16;;;;;;;7.18;3.67;;;16.60;99.90;;;;;;5094310;28;20200;-70
2023/08/01 06:06:43;;;;;;;10.60;3.58;;;16.50;99.90;;;;;;5087336;28;20204;-70
2023/08/01 06:09:10;;;;;;;7.22;3.80;;;16.50;99.90;;;;;;5088162;28;20198;-70
2023/08/01 06:11:38;;;;;;;8.50;3.63;;;16.60;99.90;;;;;;5090502;28;20540;-70
2023/08/01 06:14:05;;;;;;;7.78;3.78;;;16.70;99.90;;;;;;5096722;28;20755;-70
2023/08/01 06:16:32;;;;;;;5.93;3.53;;;16.80;99.90;;;;;;5072699;28;20213;-70
2023/08/01 06:18:59;;;;;;;5.88;3.92;;;16.80;99.90;;;;;;5095545;28;20225;-70
2023/08/01 06:21:26;;;;;;;5.72;3.28;;;16.80;99.90;;;;;;5080894;28;20196;-71
2023/08/01 06:23:53;;;;;;;5.13;3.65;;;16.90;99.90;;;;;;5089612;28;20211;-70
2023/08/01 06:26:20;;;;;;;9.40;3.58;;;16.90;99.90;;;;;;5093560;28;20203;-70
2023/08/01 06:28:48;;;;;;;6.13;3.95;;;16.90;99.90;;;;;;5092486;28;20254;-70
2023/08/01 06:31:15;;;;;;;7.53;3.60;;;16.90;99.90;;;;;;5072948;28;20215;-70
2023/08/01 06:33:42;;;;;;;8.40;4.15;;;16.90;99.90;;;;;;5091527;28;20192;-70
2023/08/01 06:36:09;;;;;;;6.82;4.05;;;16.90;99.90;;;;;;5092747;27;20203;-70
2023/08/01 06:38:35;;;;;;;4.18;3.22;;;16.90;99.90;;;;;;5073623;28;20203;-70
2023/08/01 06:41:02;;;;;;;9.73;3.40;;;16.90;99.90;;;;;;5097506;28;20207;-70
2023/08/01 06:43:29;;;;;;;6.55;3.70;;;17.00;99.90;;;;;;5090602;28;20209;-70
2023/08/01 06:45:57;;;;;;;7.40;3.00;;;16.90;99.90;;;;;;5073266;28;20760;-70
2023/08/01 06:48:24;;;;;;;5.72;3.28;;;16.80;99.90;;;;;;5092542;28;20220;-70
2023/08/01 06:50:51;;;;;;;8.77;2.90;;;16.80;99.90;;;;;;5092154;28;20261;-70
2023/08/01 06:53:18;;;;;;;6.10;3.10;;;16.80;99.90;;;;;;5083253;28;20235;-70
2023/08/01 06:55:45;;;;;;;4.63;3.17;;;16.80;99.90;;;;;;5086510;28;20211;-70
2023/08/01 06:58:11;;;;;;;3.30;2.40;;;16.80;99.90;;;;;;5094151;28;20199;-70
2023/08/01 07:00:38;;;;;;;3.75;2.97;;;16.80;99.90;;;;;;5091757;28;20205;-70
2023/08/01 07:03:09;;;;;;;5.53;2.70;;;16.70;99.90;;;;;;5073359;28;20200;-70
2023/08/01 07:05:35;;;;;;;3.83;2.80;;;16.80;99.90;;;;;;5090237;28;20195;-71
2023/08/01 07:08:02;;;;;;;8.57;3.85;;;16.90;99.90;;;;;;5093567;28;20572;-70
2023/08/01 07:10:29;;;;;;;4.57;2.88;;;16.90;99.90;;;;;;5076997;28;20560;-70
2023/08/01 07:12:56;;;;;;;7.70;3.22;;;16.90;99.90;;;;;;5094125;28;20223;-70
2023/08/01 07:15:23;;;;;;;5.00;2.80;;;16.90;99.90;;;;;;5088751;28;20195;-70
2023/08/01 07:17:50;;;;;;;4.88;2.67;;;16.90;99.90;;;;;;5072930;28;20207;-70
2023/08/01 07:20:19;;;;;;;8.45;2.85;;;16.90;99.90;;;;;;5093556;28;20219;-70
2023/08/01 07:22:45;;;;;;;6.88;2.50;;;17.00;99.90;;;;;;5091755;28;20198;-70
2023/08/01 07:25:12;;;;;;;5.97;2.22;;;17.10;99.90;;;;;;5085166;28;20199;-70
2023/08/01 07:27:39;;;;;;;8.98;3.00;;;17.10;99.90;;;;;;5084669;28;20207;-70
2023/08/01 07:30:07;;;;;;;5.95;2.10;;;17.10;99.90;;;;;;5094784;28;20246;-70
2023/08/01 07:32:34;;;;;;;4.45;2.15;;;16.70;99.90;;;;;;5074806;28;21062;-70
2023/08/01 07:35:00;;;;;;;2.42;1.50;;;17.00;99.90;;;;;;5098257;28;20195;-70
2023/08/01 07:37:29;;;;;;;3.85;1.70;;;16.90;99.90;;;;;;5095334;28;20196;-70
2023/08/01 07:39:56;;;;;;;3.28;1.60;;;17.00;99.90;;;;;;5096353;28;20199;-70
2023/08/01 07:42:22;;;;;;;6.35;1.85;;;17.00;99.90;;;;;;5089798;28;20195;-70
2023/08/01 07:44:49;;;;;;;3.28;1.98;;;17.10;99.90;;;;;;5089336;28;20219;-70
2023/08/01 07:47:16;;;;;;;4.60;1.77;;;17.20;99.90;;;;;;5080566;28;20247;-71
2023/08/01 07:49:43;;;;;;;3.65;1.90;;;17.20;99.90;;;;;;5073449;28;20712;-70
2023/08/01 07:52:09;;;;;;;1.75;1.42;;;17.10;99.90;;;;;;5086954;28;20229;-70
2023/08/01 07:54:38;;;;;;;3.45;1.60;;;17.10;99.90;;;;;;5090840;27;20226;-70
2023/08/01 07:57:06;;;;;;;3.25;1.70;;;17.10;99.90;;;;;;5083375;28;21329;-70
2023/08/01 07:59:32;;;;;;;2.38;1.65;;;17.20;99.90;;;;;;5082811;28;20231;-70
2023/08/01 08:01:59;;;;;;;5.35;1.70;;;17.30;99.90;;;;;;5087002;28;20223;-69
2023/08/01 08:04:26;;;;;;;4.60;1.65;;;17.40;99.90;;;;;;5069743;28;20226;-70
2023/08/01 08:06:54;;;;;;;8.57;2.03;;;17.40;99.90;;;;;;5088147;28;20215;-70
2023/08/01 08:09:22;;;;;;;5.32;1.88;;;17.40;99.90;;;;;;5094735;28;20705;-70
2023/08/01 08:11:51;;;;;;;6.25;1.98;;;18.10;99.90;;;;;;5076341;28;20223;-70
2023/08/01 08:14:20;;;;;;;2.83;1.35;;;18.20;99.90;;;;;;5085163;28;20219;-70
2023/08/01 08:16:47;;;;;;;4.82;2.10;;;17.60;99.90;;;;;;5093337;28;20297;-69
2023/08/01 08:19:14;;;;;;;2.63;1.58;;;17.70;99.90;;;;;;5073894;28;20223;-70
2023/08/01 08:21:40;;;;;;;3.25;1.98;;;18.50;99.90;;;;;;5089307;28;20212;-69
2023/08/01 08:24:07;;;;;;;4.65;1.75;;;17.80;99.90;;;;;;5088785;28;20220;-73
2023/08/01 08:26:37;;;;;;;3.47;1.80;;;17.70;99.90;;;;;;5086945;28;20208;-69
2023/08/01 08:29:05;;;;;;;6.50;1.90;;;17.60;99.90;;;;;;5087692;28;20228;-73
2023/08/01 08:31:32;;;;;;;3.80;1.98;;;17.70;99.90;;;;;;5089117;28;21127;-70
2023/08/01 08:33:59;;;;;;;8.38;1.83;;;17.70;99.90;;;;;;5096899;28;20229;-69
2023/08/01 08:36:26;;;;;;;3.65;1.70;;;17.60;99.90;;;;;;5073608;28;20219;-70
2023/08/01 08:38:52;;;;;;;4.03;1.80;;;17.40;99.90;;;;;;5092457;28;20245;-70
2023/08/01 08:41:22;;;;;;;4.03;1.67;;;17.60;99.90;;;;;;5090542;28;20200;-70
2023/08/01 08:43:50;;;;;;;3.72;1.70;;;17.60;99.90;;;;;;5089107;28;20299;-70
2023/08/01 08:46:20;;;;;;;4.13;1.90;;;17.80;99.90;;;;;;5094998;28;20265;-70
2023/08/01 08:48:48;;;;;;;4.05;2.00;;;17.80;99.90;;;;;;5093283;28;20196;-69
2023/08/01 08:51:15;;;;;;;2.67;1.77;;;17.70;99.90;;;;;;5072492;27;20203;-70
2023/08/01 08:53:43;;;;;;;2.60;1.20;;;17.70;99.90;;;;;;5096913;28;20233;-69
2023/08/01 08:56:10;;;;;;;2.00;1.50;;;17.80;99.90;;;;;;5087950;27;20210;-69
2023/08/01 08:58:39;;;;;;;2.30;1.25;;;17.80;99.90;;;;;;5091956;28;20195;-69
2023/08/01 09:01:07;;;;;;;4.45;1.05;;;17.80;99.90;;;;;;5089554;28;20886;-69
2023/08/01 09:03:36;;;;;;;2.17;1.40;;;17.90;99.90;;;;;;5093423;28;20192;-69
2023/08/01 09:06:07;;;;;;;2.40;1.30;;;17.90;99.90;;;;;;5074600;28;20211;-70
2023/08/01 09:08:40;;;;;;;2.90;1.48;;;18.00;99.90;;;;;;5092177;28;20207;-70
2023/08/01 09:11:07;;;;;;;1.13;1.02;;;18.10;99.90;;;;;;5093566;27;20206;-71
2023/08/01 09:13:35;;;;;;;2.03;0.90;;;18.10;99.90;;;;;;5088116;28;20450;-70
2023/08/01 09:16:03;;;;;;;2.25;1.25;;;18.30;99.90;;;;;;5087756;28;20195;-69
2023/08/01 09:18:30;;;;;;;2.50;1.40;;;18.40;99.90;;;;;;5091292;28;20188;-69
2023/08/01 09:21:02;;;;;;;2.30;1.00;;;18.30;99.90;;;;;;5095706;28;20209;-69
2023/08/01 09:23:30;;;;;;;4.60;1.30;;;18.10;99.90;;;;;;5071021;28;20219;-69
2023/08/01 09:25:57;;;;;;;2.45;1.20;;;18.00;99.90;;;;;;5091198;28;20227;-69
2023/08/01 09:28:24;;;;;;;4.55;1.20;;;18.00;99.90;;;;;;5076893;28;20601;-69
2023/08/01 09:30:54;;;;;;;1.50;1.13;;;18.10;99.90;;;;;;5085861;28;20346;-69
2023/08/01 09:33:21;;;;;;;2.17;1.02;;;18.30;99.90;;;;;;5089746;28;20960;-70
2023/08/01 09:35:50;;;;;;;2.20;1.13;;;18.30;99.90;;;;;;5094853;28;20199;-69
2023/08/01 09:38:18;;;;;;;4.13;1.23;;;18.40;99.90;;;;;;5073325;28;20229;-70
2023/08/01 09:40:46;;;;;;;1.23;0.95;;;18.30;99.90;;;;;;5092951;28;20568;-69
2023/08/01 09:43:13;;;;;;;1.60;1.08;;;18.20;99.90;;;;;;5083035;28;20214;-70
2023/08/01 09:45:51;;;;;;;1.80;1.05;;;18.20;99.90;;;;;;5096031;28;20524;-69
2023/08/01 09:48:24;;;;;;;1.65;0.82;;;18.20;99.90;;;;;;5086105;28;20203;-70
2023/08/01 09:50:51;;;;;;;0.93;0.82;;;18.20;99.90;;;;;;5095770;28;20206;-69
2023/08/01 09:53:19;;;;;;;0.95;0.75;;;18.00;99.90;;;;;;5073205;28;20231;-70
2023/08/01 09:55:49;;;;;;;4.38;1.10;;;18.00;99.90;;;;;;5090210;28;20207;-69
2023/08/01 09:58:22;;;;;;;1.05;0.95;;;18.00;99.90;;;;;;5086175;28;20205;-70
2023/08/01 10:00:50;;;;;;;2.42;0.98;;;18.00;99.90;;;;;;5092776;28;20195;-69
2023/08/01 10:03:18;;;;;;;1.48;1.00;;;18.30;99.90;;;;;;5084189;27;20202;-69
2023/08/01 10:05:46;;;;;;;3.20;0.90;;;18.30;99.90;;;;;;5093080;28;20192;-69
2023/08/01 10:08:14;;;;;;;1.10;1.00;;;18.90;99.90;;;;;;5082939;28;20572;-70
2023/08/01 10:10:43;;;;;;;1.90;0.90;;;18.70;99.90;;;;;;5084870;28;20296;-69
2023/08/01 10:13:13;;;;;;;1.35;0.98;;;18.70;99.90;;;;;;5092514;28;20223;-70
2023/08/01 10:15:41;;;;;;;0.80;0.80;;;18.60;99.90;;;;;;5091881;28;20708;-69
2023/08/01 10:18:09;;;;;;;3.10;1.20;;;18.40;99.90;;;;;;5086471;28;20204;-70
2023/08/01 10:20:38;;;;;;;1.20;0.93;;;18.30;99.90;;;;;;5087899;28;20876;-69
2023/08/01 10:23:06;;;;;;;0.90;0.85;;;18.50;99.90;;;;;;5092315;28;20685;-70
2023/08/01 10:25:34;;;;;;;1.67;0.90;;;18.50;99.90;;;;;;5080651;28;20203;-69
2023/08/01 10:28:03;;;;;;;1.75;1.10;;;18.50;99.90;;;;;;5093814;28;20203;-69
2023/08/01 10:30:30;;;;;;;3.72;1.10;;;18.50;99.90;;;;;;5092501;28;20191;-69
2023/08/01 10:32:58;;;;;;;2.22;0.88;;;18.20;99.90;;;;;;5087491;28;20234;-69
2023/08/01 10:35:36;;;;;;;4.47;1.10;;;18.00;99.90;;;;;;5081579;28;20226;-69
2023/08/01 10:38:07;;;;;;;4.30;1.15;;;17.70;99.90;;;;;;5084603;28;20779;-69
2023/08/01 10:40:35;;;;;;;1.30;0.82;;;17.40;99.90;;;;;;5072823;28;20223;-69
2023/08/01 10:43:03;;;;;;;1.15;0.93;;;16.30;99.90;;;;;;5087919;28;20319;-69
2023/08/01 10:45:30;;;;;;;2.22;1.10;;;17.80;99.90;;;;;;5089311;28;20216;-69
2023/08/01 10:48:08;;;;;;;1.30;0.98;;;17.20;99.90;;;;;;5078436;28;20253;-69
2023/08/01 10:50:35;;;;;;;1.70;1.48;;;17.30;99.90;;;;;;5080787;28;20223;-69
2023/08/01 10:53:05;;;;;;;1.30;1.10;;;17.50;99.90;;;;;;5085150;28;20243;-69
2023/08/01 10:55:40;;;;;;;3.92;1.25;;;17.60;99.90;;;;;;5069706;28;20255;-69
2023/08/01 10:58:09;;;;;;;1.60;1.30;;;17.60;99.90;;;;;;5090663;28;20215;-69
2023/08/01 11:00:36;;;;;;;1.33;1.20;;;17.60;99.90;;;;;;5094993;28;20214;-69
2023/08/01 11:03:02;;;;;;;4.38;1.27;;;17.80;99.90;;;;;;5088645;28;20203;-69
2023/08/01 11:05:29;;;;;;;2.15;1.10;;;17.80;99.90;;;;;;5075303;28;20219;-69
2023/08/01 11:07:57;;;;;;;2.58;1.30;;;17.80;99.90;;;;;;5093701;28;20223;-69
2023/08/01 11:10:25;;;;;;;1.58;1.17;;;17.90;99.90;;;;;;5075496;28;20233;-69
2023/08/01 11:12:53;;;;;;;2.45;0.95;;;17.80;99.90;;;;;;5096445;28;20196;-69
2023/08/01 11:15:21;;;;;;;2.03;0.90;;;17.80;99.90;;;;;;5094398;28;20222;-69
2023/08/01 11:17:49;;;;;;;1.92;0.80;;;17.60;99.90;;;;;;5091882;28;20202;-69
2023/08/01 11:20:17;;;;;;;1.63;0.88;;;17.50;99.90;;;;;;5090400;28;20227;-69
2023/08/01 11:22:52;;;;;;;2.42;1.10;;;17.50;99.90;;;;;;5085018;28;20301;-69
2023/08/01 11:25:19;;;;;;;3.70;1.05;;;17.40;99.90;;;;;;5077098;28;20607;-69
2023/08/01 11:27:46;;;;;;;1.10;0.90;;;17.30;99.90;;;;;;5091687;28;20220;-70
2023/08/01 11:30:13;;;;;;;1.00;0.90;;;17.30;99.90;;;;;;5093149;28;20234;-70
2023/08/01 11:32:41;;;;;;;0.85;0.80;;;17.50;99.90;;;;;;5092719;28;20215;-70
2023/08/01 11:35:08;;;;;;;0.80;0.80;;;17.60;99.90;;;;;;5085295;28;20231;-69
2023/08/01 11:37:36;;;;;;;0.90;0.70;;;18.00;99.90;;;;;;5086642;28;20302;-69
2023/08/01 11:40:04;;;;;;;1.23;0.77;;;18.10;99.90;;;;;;5068079;28;20348;-70
2023/08/01 11:42:33;;;;;;;1.20;0.85;;;18.40;99.90;;;;;;5094140;28;20330;-69
2023/08/01 11:45:09;;;;;;;1.35;0.75;;;18.40;99.90;;;;;;5087551;28;20727;-70
2023/08/01 11:47:36;;;;;;;0.80;0.80;;;18.40;99.90;;;;;;5097754;28;20199;-69
2023/08/01 11:50:06;;;;;;;1.08;0.82;;;18.20;99.90;;;;;;5087443;28;20719;-69
2023/08/01 11:52:32;;;;;;;0.90;0.55;;;18.30;99.90;;;;;;5090866;27;20202;-69
2023/08/01 11:54:59;;;;;;;1.35;0.80;;;17.90;99.90;;;;;;5093932;27;20332;-70
2023/08/01 11:57:26;;;;;;;1.52;0.90;;;17.90;99.90;;;;;;5077449;28;20292;-69
2023/08/01 11:59:54;;;;;;;3.70;0.93;;;17.90;99.90;;;;;;5095871;28;20207;-71
2023/08/01 12:02:22;;;;;;;1.35;0.80;;;17.90;99.90;;;;;;5095104;28;20199;-69
2023/08/01 12:04:49;;;;;;;1.48;0.77;;;18.00;99.90;;;;;;5095207;28;20248;-69
2023/08/01 12:07:18;;;;;;;1.77;0.52;;;18.00;99.90;;;;;;5084183;28;20674;-69
2023/08/01 12:09:45;;;;;;;1.45;0.80;;;18.00;99.90;;;;;;5095826;28;20200;-70
2023/08/01 12:12:11;;;;;;;0.80;0.80;;;18.00;99.90;;;;;;5075285;27;20203;-69
2023/08/01 12:14:41;;;;;;;1.17;0.77;;;17.90;99.90;;;;;;5092683;28;20228;-69
2023/08/01 12:17:08;;;;;;;4.25;1.17;;;18.20;99.90;;;;;;5094231;28;20191;-69
2023/08/01 12:19:35;;;;;;;2.63;0.70;;;18.30;99.90;;;;;;5093909;28;20218;-69
2023/08/01 12:22:03;;;;;;;1.52;0.80;;;18.20;99.90;;;;;;5082186;27;20223;-69
2023/08/01 12:24:31;;;;;;;2.92;0.95;;;18.20;99.90;;;;;;5086693;28;20216;-69
2023/08/01 12:26:58;;;;;;;0.80;0.80;;;18.50;99.90;;;;;;5093838;28;20229;-72
2023/08/01 12:29:25;;;;;;;2.00;1.00;;;18.40;99.90;;;;;;5076943;28;20219;-69
2023/08/01 12:31:51;;;;;;;3.03;0.82;;;18.60;99.90;;;;;;5092827;28;20199;-69
2023/08/01 12:34:18;;;;;;;1.17;0.73;;;18.60;99.90;;;;;;5095414;28;20231;-69
2023/08/01 12:36:45;;;;;;;2.30;0.70;;;18.70;99.90;;;;;;5096805;28;20194;-69
2023/08/01 12:39:12;;;;;;;2.35;0.65;;;18.60;99.90;;;;;;5083455;28;20800;-69
2023/08/01 12:41:40;;;;;;;2.60;0.75;;;18.60;99.90;;;;;;5092752;28;20570;-69
2023/08/01 12:44:07;;;;;;;1.70;0.80;;;18.50;99.90;;;;;;5074701;28;20211;-69
2023/08/01 12:46:34;;;;;;;1.50;0.63;;;18.40;99.90;;;;;;5092460;28;20276;-69
2023/08/01 12:49:02;;;;;;;0.68;0.63;;;18.60;99.90;;;;;;5093693;28;20294;-69
2023/08/01 12:51:29;;;;;;;0.88;0.68;;;18.50;99.90;;;;;;5095787;28;20191;-69